sensor_id;sensor_type;location;lat;lon;timestamp;pressure;altitude;pressure_sealevel;temperature
45034;BMP280;30771;47.988;-4.186;2022-09-03T06:00:33;99857.53;;;15.63
45034;BMP280;30771;47.988;-4.186;2022-09-03T06:02:58;99858.63;;;15.62
45034;BMP280;30771;47.988;-4.186;2022-09-03T06:05:23;99855.94;;;15.62
45034;BMP280;30771;47.988;-4.186;2022-09-03T06:07:48;99858.34;;;15.64
45034;BMP280;30771;47.988;-4.186;2022-09-03T06:10:15;99866.03;;;15.65
45034;BMP280;30771;47.988;-4.186;2022-09-03T06:12:41;99866.84;;;15.66
45034;BMP280;30771;47.988;-4.186;2022-09-03T06:15:09;99865.81;;;15.67
45034;BMP280;30771;47.988;-4.186;2022-09-03T06:17:36;99862.91;;;15.68
45034;BMP280;30771;47.988;-4.186;2022-09-03T06:20:01;99866.09;;;15.70
45034;BMP280;30771;47.988;-4.186;2022-09-03T06:22:27;99862.97;;;15.73
45034;BMP280;30771;47.988;-4.186;2022-09-03T06:24:52;99865.91;;;15.77
45034;BMP280;30771;47.988;-4.186;2022-09-03T06:27:17;99865.41;;;15.80
45034;BMP280;30771;47.988;-4.186;2022-09-03T06:29:42;99869.19;;;15.84
45034;BMP280;30771;47.988;-4.186;2022-09-03T06:32:07;99867.06;;;15.86
45034;BMP280;30771;47.988;-4.186;2022-09-03T06:34:32;99871.63;;;15.90
45034;BMP280;30771;47.988;-4.186;2022-09-03T06:36:58;99868.47;;;15.93
45034;BMP280;30771;47.988;-4.186;2022-09-03T06:39:23;99868.75;;;15.97
45034;BMP280;30771;47.988;-4.186;2022-09-03T06:41:48;99869.88;;;16.01
45034;BMP280;30771;47.988;-4.186;2022-09-03T06:44:13;99864.84;;;16.04
45034;BMP280;30771;47.988;-4.186;2022-09-03T06:46:39;99868.09;;;16.11
45034;BMP280;30771;47.988;-4.186;2022-09-03T06:49:04;99868.44;;;16.20
45034;BMP280;30771;47.988;-4.186;2022-09-03T06:51:30;99878.84;;;16.26
45034;BMP280;30771;47.988;-4.186;2022-09-03T06:54:03;99872.25;;;16.34
45034;BMP280;30771;47.988;-4.186;2022-09-03T06:56:28;99868.34;;;16.41
45034;BMP280;30771;47.988;-4.186;2022-09-03T06:58:54;99877.69;;;16.49
45034;BMP280;30771;47.988;-4.186;2022-09-03T07:01:20;99884.66;;;16.55
45034;BMP280;30771;47.988;-4.186;2022-09-03T07:03:47;99875.94;;;16.64
45034;BMP280;30771;47.988;-4.186;2022-09-03T07:08:37;99891.22;;;16.84
45034;BMP280;30771;47.988;-4.186;2022-09-03T07:11:04;99885.69;;;16.96
45034;BMP280;30771;47.988;-4.186;2022-09-03T07:13:29;99885.50;;;17.12
45034;BMP280;30771;47.988;-4.186;2022-09-03T07:16:13;99889.31;;;17.31
45034;BMP280;30771;47.988;-4.186;2022-09-03T07:18:39;99889.63;;;17.50
45034;BMP280;30771;47.988;-4.186;2022-09-03T07:21:06;99893.69;;;17.67
45034;BMP280;30771;47.988;-4.186;2022-09-03T07:23:31;99889.97;;;17.83
45034;BMP280;30771;47.988;-4.186;2022-09-03T07:25:57;99900.38;;;17.95
45034;BMP280;30771;47.988;-4.186;2022-09-03T07:28:24;99902.25;;;18.04
45034;BMP280;30771;47.988;-4.186;2022-09-03T07:30:50;99903.84;;;18.15
45034;BMP280;30771;47.988;-4.186;2022-09-03T07:33:16;99907.56;;;18.24
45034;BMP280;30771;47.988;-4.186;2022-09-03T07:35:41;99905.19;;;18.33
45034;BMP280;30771;47.988;-4.186;2022-09-03T07:38:06;99914.22;;;18.42
45034;BMP280;30771;47.988;-4.186;2022-09-03T07:40:31;99906.53;;;18.51
45034;BMP280;30771;47.988;-4.186;2022-09-03T07:42:56;99908.06;;;18.62
45034;BMP280;30771;47.988;-4.186;2022-09-03T07:45:23;99911.28;;;18.74
45034;BMP280;30771;47.988;-4.186;2022-09-03T07:47:48;99913.38;;;18.92
45034;BMP280;30771;47.988;-4.186;2022-09-03T07:50:13;99917.81;;;19.11
45034;BMP280;30771;47.988;-4.186;2022-09-03T07:52:38;99916.41;;;19.29
45034;BMP280;30771;47.988;-4.186;2022-09-03T07:55:04;99924.38;;;19.39
45034;BMP280;30771;47.988;-4.186;2022-09-03T07:57:29;99923.25;;;19.45
45034;BMP280;30771;47.988;-4.186;2022-09-03T07:59:54;99921.38;;;19.50
45034;BMP280;30771;47.988;-4.186;2022-09-03T08:02:19;99925.03;;;19.59
45034;BMP280;30771;47.988;-4.186;2022-09-03T08:04:44;99926.31;;;19.72
45034;BMP280;30771;47.988;-4.186;2022-09-03T08:07:10;99929.94;;;19.86
45034;BMP280;30771;47.988;-4.186;2022-09-03T08:09:35;99929.34;;;19.99
45034;BMP280;30771;47.988;-4.186;2022-09-03T08:12:00;99920.91;;;20.16
45034;BMP280;30771;47.988;-4.186;2022-09-03T08:14:25;99929.31;;;20.33
45034;BMP280;30771;47.988;-4.186;2022-09-03T08:16:51;99931.59;;;20.44
45034;BMP280;30771;47.988;-4.186;2022-09-03T08:19:16;99938.22;;;20.52
45034;BMP280;30771;47.988;-4.186;2022-09-03T08:21:42;99933.63;;;20.57
45034;BMP280;30771;47.988;-4.186;2022-09-03T08:24:07;99936.06;;;20.59
45034;BMP280;30771;47.988;-4.186;2022-09-03T08:26:35;99933.09;;;20.55
45034;BMP280;30771;47.988;-4.186;2022-09-03T08:29:01;99939.81;;;20.53
45034;BMP280;30771;47.988;-4.186;2022-09-03T08:31:26;99944.41;;;20.47
45034;BMP280;30771;47.988;-4.186;2022-09-03T08:33:52;99942.59;;;20.43
45034;BMP280;30771;47.988;-4.186;2022-09-03T08:36:18;99942.84;;;20.46
45034;BMP280;30771;47.988;-4.186;2022-09-03T08:38:44;99949.50;;;20.49
45034;BMP280;30771;47.988;-4.186;2022-09-03T08:46:09;99944.66;;;20.51
45034;BMP280;30771;47.988;-4.186;2022-09-03T08:48:34;99949.47;;;20.54
45034;BMP280;30771;47.988;-4.186;2022-09-03T08:51:00;99945.41;;;20.56
45034;BMP280;30771;47.988;-4.186;2022-09-03T08:53:39;99951.03;;;20.55
45034;BMP280;30771;47.988;-4.186;2022-09-03T08:56:13;99953.69;;;20.55
45034;BMP280;30771;47.988;-4.186;2022-09-03T08:58:42;99954.81;;;20.54
45034;BMP280;30771;47.988;-4.186;2022-09-03T09:22:24;99957.25;;;21.39
45034;BMP280;30771;47.988;-4.186;2022-09-03T09:24:50;99961.53;;;21.40
45034;BMP280;30771;47.988;-4.186;2022-09-03T09:27:16;99959.72;;;21.36
45034;BMP280;30771;47.988;-4.186;2022-09-03T09:29:42;99958.72;;;21.32
45034;BMP280;30771;47.988;-4.186;2022-09-03T09:32:08;99962.19;;;21.32
45034;BMP280;30771;47.988;-4.186;2022-09-03T09:34:34;99960.03;;;21.34
45034;BMP280;30771;47.988;-4.186;2022-09-03T09:37:00;99969.44;;;21.32
45034;BMP280;30771;47.988;-4.186;2022-09-03T09:39:27;99967.00;;;21.35
45034;BMP280;30771;47.988;-4.186;2022-09-03T09:41:56;99961.19;;;21.47
45034;BMP280;30771;47.988;-4.186;2022-09-03T09:44:24;99954.44;;;21.49
45034;BMP280;30771;47.988;-4.186;2022-09-03T09:46:49;99954.97;;;21.51
45034;BMP280;30771;47.988;-4.186;2022-09-03T09:49:24;99956.31;;;21.54
45034;BMP280;30771;47.988;-4.186;2022-09-03T09:51:59;99954.44;;;21.49
45034;BMP280;30771;47.988;-4.186;2022-09-03T09:54:24;99957.63;;;21.33
45034;BMP280;30771;47.988;-4.186;2022-09-03T09:56:57;99957.13;;;21.31
45034;BMP280;30771;47.988;-4.186;2022-09-03T09:59:22;99955.09;;;21.23
45034;BMP280;30771;47.988;-4.186;2022-09-03T10:01:47;99951.84;;;21.26
45034;BMP280;30771;47.988;-4.186;2022-09-03T10:04:23;99950.78;;;21.45
45034;BMP280;30771;47.988;-4.186;2022-09-03T10:06:55;99948.63;;;21.66
45034;BMP280;30771;47.988;-4.186;2022-09-03T10:09:22;99948.75;;;21.75
45034;BMP280;30771;47.988;-4.186;2022-09-03T10:11:49;99952.88;;;21.86
45034;BMP280;30771;47.988;-4.186;2022-09-03T10:14:17;99948.94;;;21.97
45034;BMP280;30771;47.988;-4.186;2022-09-03T10:16:44;99952.84;;;22.04
45034;BMP280;30771;47.988;-4.186;2022-09-03T10:19:14;99952.25;;;22.07
45034;BMP280;30771;47.988;-4.186;2022-09-03T10:26:52;99951.59;;;21.97
45034;BMP280;30771;47.988;-4.186;2022-09-03T10:29:20;99955.47;;;21.91
45034;BMP280;30771;47.988;-4.186;2022-09-03T10:34:41;99952.91;;;21.99
45034;BMP280;30771;47.988;-4.186;2022-09-03T10:44:47;99941.69;;;21.97
45034;BMP280;30771;47.988;-4.186;2022-09-03T10:49:47;99948.53;;;22.03
45034;BMP280;30771;47.988;-4.186;2022-09-03T10:55:17;99954.50;;;22.00
45034;BMP280;30771;47.988;-4.186;2022-09-03T10:57:48;99946.41;;;22.05
45034;BMP280;30771;47.988;-4.186;2022-09-03T11:00:15;99955.22;;;22.06
45034;BMP280;30771;47.988;-4.186;2022-09-03T11:07:35;99962.16;;;22.07
45034;BMP280;30771;47.988;-4.186;2022-09-03T11:10:12;99955.72;;;22.08
45034;BMP280;30771;47.988;-4.186;2022-09-03T11:12:41;99957.78;;;22.11
45034;BMP280;30771;47.988;-4.186;2022-09-03T11:15:14;99956.72;;;22.12
45034;BMP280;30771;47.988;-4.186;2022-09-03T11:17:40;99951.94;;;22.09
45034;BMP280;30771;47.988;-4.186;2022-09-03T11:22:40;99952.97;;;22.13
45034;BMP280;30771;47.988;-4.186;2022-09-03T11:25:07;99949.16;;;22.14
45034;BMP280;30771;47.988;-4.186;2022-09-03T11:30:09;99938.97;;;22.29
45034;BMP280;30771;47.988;-4.186;2022-09-03T11:35:11;99933.13;;;22.41
45034;BMP280;30771;47.988;-4.186;2022-09-03T11:37:44;99926.97;;;22.40
45034;BMP280;30771;47.988;-4.186;2022-09-03T11:40:12;99929.97;;;22.39
45034;BMP280;30771;47.988;-4.186;2022-09-03T11:42:41;99934.22;;;22.26
45034;BMP280;30771;47.988;-4.186;2022-09-03T11:45:33;99935.97;;;22.17
45034;BMP280;30771;47.988;-4.186;2022-09-03T11:47:59;99935.28;;;22.25
45034;BMP280;30771;47.988;-4.186;2022-09-03T11:50:28;99925.56;;;22.29
45034;BMP280;30771;47.988;-4.186;2022-09-03T11:53:05;99927.88;;;22.36
45034;BMP280;30771;47.988;-4.186;2022-09-03T11:55:31;99917.44;;;22.48
45034;BMP280;30771;47.988;-4.186;2022-09-03T11:57:57;99921.81;;;22.57
45034;BMP280;30771;47.988;-4.186;2022-09-03T12:00:22;99928.19;;;22.75
45034;BMP280;30771;47.988;-4.186;2022-09-03T12:02:48;99922.03;;;22.88
45034;BMP280;30771;47.988;-4.186;2022-09-03T12:07:45;99923.84;;;23.28
45034;BMP280;30771;47.988;-4.186;2022-09-03T12:10:20;99931.56;;;23.43
45034;BMP280;30771;47.988;-4.186;2022-09-03T12:12:52;99927.13;;;23.60
45034;BMP280;30771;47.988;-4.186;2022-09-03T12:17:58;99926.06;;;23.70
45034;BMP280;30771;47.988;-4.186;2022-09-03T12:20:26;99925.25;;;23.69
45034;BMP280;30771;47.988;-4.186;2022-09-03T12:22:51;99931.78;;;23.55
45034;BMP280;30771;47.988;-4.186;2022-09-03T12:25:16;99926.91;;;23.57
45034;BMP280;30771;47.988;-4.186;2022-09-03T12:27:43;99941.56;;;23.51
45034;BMP280;30771;47.988;-4.186;2022-09-03T12:30:18;99954.28;;;23.37
45034;BMP280;30771;47.988;-4.186;2022-09-03T12:32:45;99945.03;;;23.29
45034;BMP280;30771;47.988;-4.186;2022-09-03T12:37:35;99950.03;;;23.22
45034;BMP280;30771;47.988;-4.186;2022-09-03T12:40:01;99947.25;;;23.14
45034;BMP280;30771;47.988;-4.186;2022-09-03T12:42:26;99946.38;;;23.05
45034;BMP280;30771;47.988;-4.186;2022-09-03T12:44:52;99943.69;;;23.05
45034;BMP280;30771;47.988;-4.186;2022-09-03T12:47:18;99939.50;;;22.99
45034;BMP280;30771;47.988;-4.186;2022-09-03T12:49:51;99936.59;;;23.09
45034;BMP280;30771;47.988;-4.186;2022-09-03T12:57:46;99928.19;;;23.59
45034;BMP280;30771;47.988;-4.186;2022-09-03T13:00:14;99930.72;;;23.78
45034;BMP280;30771;47.988;-4.186;2022-09-03T13:05:04;99934.00;;;23.97
45034;BMP280;30771;47.988;-4.186;2022-09-03T13:07:31;99948.31;;;23.84
45034;BMP280;30771;47.988;-4.186;2022-09-03T13:10:02;99949.06;;;23.76
45034;BMP280;30771;47.988;-4.186;2022-09-03T13:12:30;99940.72;;;23.86
45034;BMP280;30771;47.988;-4.186;2022-09-03T13:14:56;99949.56;;;23.86
45034;BMP280;30771;47.988;-4.186;2022-09-03T13:20:15;99947.41;;;23.66
45034;BMP280;30771;47.988;-4.186;2022-09-03T13:27:45;99943.06;;;23.57
45034;BMP280;30771;47.988;-4.186;2022-09-03T13:30:20;99945.25;;;23.55
45034;BMP280;30771;47.988;-4.186;2022-09-03T13:37:42;99945.69;;;23.70
45034;BMP280;30771;47.988;-4.186;2022-09-03T13:42:59;99945.13;;;23.60
45034;BMP280;30771;47.988;-4.186;2022-09-03T13:45:30;99931.53;;;23.56
45034;BMP280;30771;47.988;-4.186;2022-09-03T13:50:44;99943.28;;;23.47
45034;BMP280;30771;47.988;-4.186;2022-09-03T13:55:53;99932.34;;;23.43
45034;BMP280;30771;47.988;-4.186;2022-09-03T13:58:30;99931.16;;;23.36
45034;BMP280;30771;47.988;-4.186;2022-09-03T14:03:29;99923.16;;;23.22
45034;BMP280;30771;47.988;-4.186;2022-09-03T14:06:07;99925.34;;;23.20
45034;BMP280;30771;47.988;-4.186;2022-09-03T14:08:44;99919.66;;;23.22
45034;BMP280;30771;47.988;-4.186;2022-09-03T14:26:48;99910.47;;;23.36
45034;BMP280;30771;47.988;-4.186;2022-09-03T14:29:14;99909.78;;;23.31
45034;BMP280;30771;47.988;-4.186;2022-09-03T14:36:38;99899.84;;;23.18
45034;BMP280;30771;47.988;-4.186;2022-09-03T14:46:54;99901.91;;;22.99
45034;BMP280;30771;47.988;-4.186;2022-09-03T14:52:06;99898.44;;;22.98
45034;BMP280;30771;47.988;-4.186;2022-09-03T14:54:38;99906.56;;;23.07
45034;BMP280;30771;47.988;-4.186;2022-09-03T15:00:06;99889.38;;;23.08
45034;BMP280;30771;47.988;-4.186;2022-09-03T15:02:45;99900.50;;;23.15
45034;BMP280;30771;47.988;-4.186;2022-09-03T15:07:58;99895.44;;;23.00
45034;BMP280;30771;47.988;-4.186;2022-09-03T15:10:26;99891.25;;;23.07
45034;BMP280;30771;47.988;-4.186;2022-09-03T15:12:56;99884.16;;;23.25
45034;BMP280;30771;47.988;-4.186;2022-09-03T15:21:25;99883.75;;;23.40
45034;BMP280;30771;47.988;-4.186;2022-09-03T15:31:08;99874.81;;;23.22
45034;BMP280;30771;47.988;-4.186;2022-09-03T15:33:39;99883.56;;;23.14
45034;BMP280;30771;47.988;-4.186;2022-09-03T15:36:14;99881.22;;;23.13
45034;BMP280;30771;47.988;-4.186;2022-09-03T15:38:53;99888.25;;;23.09
45034;BMP280;30771;47.988;-4.186;2022-09-03T15:41:28;99883.50;;;23.06
45034;BMP280;30771;47.988;-4.186;2022-09-03T15:43:58;99894.06;;;23.02
45034;BMP280;30771;47.988;-4.186;2022-09-03T15:46:36;99888.69;;;23.02
45034;BMP280;30771;47.988;-4.186;2022-09-03T15:49:04;99881.44;;;23.03
45034;BMP280;30771;47.988;-4.186;2022-09-03T15:54:00;99884.63;;;23.27
45034;BMP280;30771;47.988;-4.186;2022-09-03T15:59:19;99884.00;;;23.08
45034;BMP280;30771;47.988;-4.186;2022-09-03T16:04:41;99888.50;;;22.72
45034;BMP280;30771;47.988;-4.186;2022-09-03T16:10:01;99879.38;;;22.46
45034;BMP280;30771;47.988;-4.186;2022-09-03T16:12:33;99876.31;;;22.39
45034;BMP280;30771;47.988;-4.186;2022-09-03T16:17:30;99878.63;;;22.13
45034;BMP280;30771;47.988;-4.186;2022-09-03T16:20:00;99872.69;;;22.03
45034;BMP280;30771;47.988;-4.186;2022-09-03T16:22:28;99862.63;;;21.95
45034;BMP280;30771;47.988;-4.186;2022-09-03T16:24:57;99872.34;;;21.91
45034;BMP280;30771;47.988;-4.186;2022-09-03T16:29:59;99863.97;;;21.79
45034;BMP280;30771;47.988;-4.186;2022-09-03T16:40:14;99858.94;;;21.91
45034;BMP280;30771;47.988;-4.186;2022-09-03T16:45:23;99852.72;;;22.09
45034;BMP280;30771;47.988;-4.186;2022-09-03T16:58:22;99852.75;;;22.22
45034;BMP280;30771;47.988;-4.186;2022-09-03T17:14:19;99847.97;;;22.19
45034;BMP280;30771;47.988;-4.186;2022-09-03T17:19:22;99852.34;;;22.15
45034;BMP280;30771;47.988;-4.186;2022-09-03T17:36:58;99848.25;;;21.72
45034;BMP280;30771;47.988;-4.186;2022-09-03T17:43:17;99843.97;;;21.57
45034;BMP280;30771;47.988;-4.186;2022-09-03T17:50:30;99847.97;;;21.41
45034;BMP280;30771;47.988;-4.186;2022-09-03T17:53:02;99850.50;;;21.33
45034;BMP280;30771;47.988;-4.186;2022-09-03T17:55:30;99846.59;;;21.25
45034;BMP280;30771;47.988;-4.186;2022-09-03T17:58:11;99856.50;;;21.25
45034;BMP280;30771;47.988;-4.186;2022-09-03T18:00:53;99844.78;;;21.21
45034;BMP280;30771;47.988;-4.186;2022-09-03T18:03:26;99845.16;;;21.14
45034;BMP280;30771;47.988;-4.186;2022-09-03T18:05:56;99846.81;;;21.10
45034;BMP280;30771;47.988;-4.186;2022-09-03T18:11:09;99843.97;;;21.02
45034;BMP280;30771;47.988;-4.186;2022-09-03T18:16:28;99837.41;;;20.94
45034;BMP280;30771;47.988;-4.186;2022-09-03T18:21:39;99835.34;;;20.86
45034;BMP280;30771;47.988;-4.186;2022-09-03T18:26:59;99845.31;;;20.81
45034;BMP280;30771;47.988;-4.186;2022-09-03T18:29:32;99835.22;;;20.78
45034;BMP280;30771;47.988;-4.186;2022-09-03T18:32:00;99836.84;;;20.74
45034;BMP280;30771;47.988;-4.186;2022-09-03T18:34:29;99843.88;;;20.70
45034;BMP280;30771;47.988;-4.186;2022-09-03T18:36:57;99831.84;;;20.67
45034;BMP280;30771;47.988;-4.186;2022-09-03T18:39:24;99827.56;;;20.66
45034;BMP280;30771;47.988;-4.186;2022-09-03T18:42:11;99833.44;;;20.68
45034;BMP280;30771;47.988;-4.186;2022-09-03T18:49:34;99833.66;;;20.72
45034;BMP280;30771;47.988;-4.186;2022-09-03T18:56:57;99827.06;;;20.64
45034;BMP280;30771;47.988;-4.186;2022-09-03T19:02:01;99837.81;;;20.59
45034;BMP280;30771;47.988;-4.186;2022-09-03T19:07:10;99843.97;;;20.60
45034;BMP280;30771;47.988;-4.186;2022-09-03T19:15:05;99841.59;;;20.58
45034;BMP280;30771;47.988;-4.186;2022-09-03T19:22:43;99840.00;;;20.57
45034;BMP280;30771;47.988;-4.186;2022-09-03T19:25:12;99843.53;;;20.53
45034;BMP280;30771;47.988;-4.186;2022-09-03T19:27:42;99846.47;;;20.51
45034;BMP280;30771;47.988;-4.186;2022-09-03T19:33:09;99844.94;;;20.45
45034;BMP280;30771;47.988;-4.186;2022-09-03T19:35:35;99840.16;;;20.42
45034;BMP280;30771;47.988;-4.186;2022-09-03T19:38:17;99832.69;;;20.39
45034;BMP280;30771;47.988;-4.186;2022-09-03T19:51:15;99839.25;;;20.28
45034;BMP280;30771;47.988;-4.186;2022-09-03T19:53:41;99833.91;;;20.28
45034;BMP280;30771;47.988;-4.186;2022-09-03T19:56:24;99837.13;;;20.25
45034;BMP280;30771;47.988;-4.186;2022-09-03T19:58:54;99835.56;;;20.24
45034;BMP280;30771;47.988;-4.186;2022-09-03T20:01:19;99830.47;;;20.23
45034;BMP280;30771;47.988;-4.186;2022-09-03T20:03:45;99828.88;;;20.22
45034;BMP280;30771;47.988;-4.186;2022-09-03T20:06:11;99833.44;;;20.21
45034;BMP280;30771;47.988;-4.186;2022-09-03T20:08:36;99832.94;;;20.19
45034;BMP280;30771;47.988;-4.186;2022-09-03T20:11:01;99830.78;;;20.21
45034;BMP280;30771;47.988;-4.186;2022-09-03T20:13:27;99836.63;;;20.23
45034;BMP280;30771;47.988;-4.186;2022-09-03T20:15:56;99830.22;;;20.24
45034;BMP280;30771;47.988;-4.186;2022-09-03T20:26:00;99832.88;;;20.24
45034;BMP280;30771;47.988;-4.186;2022-09-03T20:32:02;99830.69;;;20.26
45034;BMP280;30771;47.988;-4.186;2022-09-03T20:49:33;99825.25;;;20.36
45034;BMP280;30771;47.988;-4.186;2022-09-03T20:52:05;99830.31;;;20.38
45034;BMP280;30771;47.988;-4.186;2022-09-03T20:54:36;99839.44;;;20.37
45034;BMP280;30771;47.988;-4.186;2022-09-03T20:57:19;99833.81;;;20.38
45034;BMP280;30771;47.988;-4.186;2022-09-03T21:00:01;99830.81;;;20.40
45034;BMP280;30771;47.988;-4.186;2022-09-03T21:20:31;99838.00;;;20.44
45034;BMP280;30771;47.988;-4.186;2022-09-03T21:25:39;99836.00;;;20.31
45034;BMP280;30771;47.988;-4.186;2022-09-03T21:28:26;99836.56;;;20.28
45034;BMP280;30771;47.988;-4.186;2022-09-03T21:30:55;99840.59;;;20.26
45034;BMP280;30771;47.988;-4.186;2022-09-03T21:33:28;99835.25;;;20.26
45034;BMP280;30771;47.988;-4.186;2022-09-03T21:38:38;99832.88;;;20.24
45034;BMP280;30771;47.988;-4.186;2022-09-03T21:46:12;99846.25;;;20.24
45034;BMP280;30771;47.988;-4.186;2022-09-03T21:48:40;99854.75;;;20.26
45034;BMP280;30771;47.988;-4.186;2022-09-03T21:51:08;99857.16;;;20.28
45034;BMP280;30771;47.988;-4.186;2022-09-03T21:53:43;99851.81;;;20.28
45034;BMP280;30771;47.988;-4.186;2022-09-03T22:01:10;99863.31;;;20.28
45034;BMP280;30771;47.988;-4.186;2022-09-03T22:03:39;99866.28;;;20.27
45034;BMP280;30771;47.988;-4.186;2022-09-03T22:06:06;99864.16;;;20.24
45034;BMP280;30771;47.988;-4.186;2022-09-03T22:08:46;99875.09;;;20.22
45034;BMP280;30771;47.988;-4.186;2022-09-03T22:16:31;99872.25;;;20.14
45034;BMP280;30771;47.988;-4.186;2022-09-03T22:18:58;99864.56;;;20.12
45034;BMP280;30771;47.988;-4.186;2022-09-03T22:21:39;99871.75;;;20.12
45034;BMP280;30771;47.988;-4.186;2022-09-03T22:29:04;99878.69;;;20.13
45034;BMP280;30771;47.988;-4.186;2022-09-03T22:31:34;99865.63;;;20.11
45034;BMP280;30771;47.988;-4.186;2022-09-03T22:34:10;99877.38;;;20.10
45034;BMP280;30771;47.988;-4.186;2022-09-03T22:36:39;99869.94;;;20.07
45034;BMP280;30771;47.988;-4.186;2022-09-03T22:46:43;99886.03;;;19.97
45034;BMP280;30771;47.988;-4.186;2022-09-03T22:49:19;99886.31;;;19.96
45034;BMP280;30771;47.988;-4.186;2022-09-03T22:51:53;99896.50;;;19.93
45034;BMP280;30771;47.988;-4.186;2022-09-03T22:56:50;99893.81;;;19.93
45034;BMP280;30771;47.988;-4.186;2022-09-03T22:59:22;99890.34;;;19.93
